TimeEDT,TemperatureF,Dew PointF,Humidity,Sea Level PressureIn,VisibilityMPH,Wind Direction,Wind SpeedMPH,Gust SpeedMPH,PrecipitationIn,Events,Conditions,WindDirDegrees,DateUTC
12:53 AM,81.0,73.9,79,29.94,8.0,WSW,5.8,-,N/A,,Clear,240,2013-08-30 04:53:00
1:53 AM,81.0,73.9,79,29.93,8.0,WSW,5.8,-,N/A,,Scattered Clouds,250,2013-08-30 05:53:00
2:53 AM,80.1,73.9,81,29.91,8.0,WSW,4.6,-,N/A,,Clear,250,2013-08-30 06:53:00
3:53 AM,79.0,73.9,84,29.91,7.0,WSW,5.8,-,N/A,,Clear,250,2013-08-30 07:53:00
4:53 AM,78.1,73.0,84,29.91,7.0,WSW,6.9,-,N/A,,Clear,250,2013-08-30 08:53:00
5:53 AM,78.1,73.0,84,29.91,7.0,West,6.9,-,N/A,,Clear,260,2013-08-30 09:53:00
6:53 AM,78.1,73.0,84,29.93,7.0,WNW,3.5,-,N/A,,Clear,290,2013-08-30 10:53:00
7:53 AM,78.1,73.9,87,29.95,5.0,Calm,Calm,-,N/A,,Clear,0,2013-08-30 11:53:00
8:53 AM,80.1,73.9,81,29.96,5.0,WSW,4.6,-,N/A,,Haze,250,2013-08-30 12:53:00
9:53 AM,84.0,73.9,72,29.97,6.0,Calm,Calm,-,N/A,,Haze,0,2013-08-30 13:53:00
10:53 AM,87.1,75.9,69,29.97,7.0,North,3.5,-,N/A,,Clear,10,2013-08-30 14:53:00
11:53 AM,86.0,78.1,77,29.98,6.0,East,10.4,-,N/A,,Haze,80,2013-08-30 15:53:00
12:53 PM,88.0,78.1,72,29.96,7.0,ENE,9.2,-,N/A,,Partly Cloudy,70,2013-08-30 16:53:00
1:27 PM,87.8,78.8,75,29.95,7.0,East,8.1,-,N/A,Thunderstorm,Thunderstorm,80,2013-08-30 17:27:00
1:53 PM,87.1,78.1,74,29.94,7.0,ENE,6.9,-,N/A,Thunderstorm,Thunderstorm,70,2013-08-30 17:53:00
2:29 PM,84.2,71.6,66,29.94,10.0,NNE,3.5,-,N/A,,Mostly Cloudy,20,2013-08-30 18:29:00
2:53 PM,89.1,69.1,52,29.93,10.0,NNW,5.8,-,N/A,,Partly Cloudy,330,2013-08-30 18:53:00
3:53 PM,89.1,75.0,63,29.91,10.0,NE,8.1,-,N/A,,Clear,50,2013-08-30 19:53:00
4:53 PM,87.1,78.1,74,29.91,9.0,ENE,12.7,-,N/A,,Partly Cloudy,60,2013-08-30 20:53:00
5:10 PM,87.8,78.8,75,29.90,9.0,ENE,13.8,19.6,N/A,,Mostly Cloudy,60,2013-08-30 21:10:00
5:53 PM,84.0,75.9,76,29.92,10.0,ENE,12.7,17.3,N/A,,Overcast,60,2013-08-30 21:53:00
6:09 PM,84.2,75.2,74,29.93,10.0,ENE,11.5,-,N/A,Thunderstorm,Mostly Cloudy,60,2013-08-30 22:09:00
6:22 PM,84.2,75.2,74,29.93,10.0,ENE,11.5,20.7,N/A,,Scattered Clouds,60,2013-08-30 22:22:00
6:34 PM,84.2,75.2,74,29.93,10.0,ENE,12.7,20.7,N/A,,Mostly Cloudy,70,2013-08-30 22:34:00
6:53 PM,84.0,75.9,76,29.94,10.0,East,11.5,-,N/A,,Overcast,80,2013-08-30 22:53:00
7:23 PM,82.4,77.0,84,29.93,10.0,East,9.2,-,N/A,,Mostly Cloudy,100,2013-08-30 23:23:00
7:31 PM,82.4,75.2,79,29.93,10.0,East,11.5,-,N/A,Thunderstorm,Scattered Clouds,100,2013-08-30 23:31:00
7:53 PM,82.9,75.9,79,29.94,10.0,ESE,11.5,-,N/A,,Scattered Clouds,110,2013-08-30 23:53:00
7:59 PM,80.6,73.4,79,29.95,10.0,SSE,13.8,20.7,N/A,Thunderstorm,Mostly Cloudy,150,2013-08-30 23:59:00
8:20 PM,78.8,71.6,78,29.95,10.0,SSE,6.9,-,N/A,,Overcast,160,2013-08-31 00:20:00
8:39 PM,80.6,66.2,61,29.94,10.0,Calm,Calm,-,N/A,,Mostly Cloudy,0,2013-08-31 00:39:00
8:53 PM,81.0,66.9,62,29.94,10.0,SE,6.9,-,N/A,,Partly Cloudy,140,2013-08-31 00:53:00
9:53 PM,80.1,72.0,76,29.94,10.0,SE,3.5,-,N/A,,Clear,130,2013-08-31 01:53:00
10:53 PM,82.0,75.9,82,29.95,10.0,ESE,6.9,-,N/A,,Scattered Clouds,120,2013-08-31 02:53:00
11:07 PM,82.4,77.0,84,29.94,8.0,SE,6.9,-,N/A,,Mostly Cloudy,140,2013-08-31 03:07:00
11:19 PM,82.4,77.0,84,29.94,7.0,SSE,5.8,-,N/A,,Mostly Cloudy,150,2013-08-31 03:19:00
11:53 PM,82.0,77.0,85,29.94,8.0,South,4.6,-,N/A,,Mostly Cloudy,180,2013-08-31 03:53:00